sensor_id;sensor_type;location;lat;lon;timestamp;pressure;altitude;pressure_sealevel;temperature;humidity
7768;BME280;3928;42.626;23.382;2023-11-21T00:02:07;93982.31;;;8.22;69.30
7768;BME280;3928;42.626;23.382;2023-11-21T00:04:34;93992.47;;;8.30;69.70
7768;BME280;3928;42.626;23.382;2023-11-21T00:07:02;93953.50;;;8.11;69.42
7768;BME280;3928;42.626;23.382;2023-11-21T00:09:31;93982.97;;;8.38;68.49
7768;BME280;3928;42.626;23.382;2023-11-21T00:11:58;93975.31;;;8.38;68.54
7768;BME280;3928;42.626;23.382;2023-11-21T00:14:25;93985.44;;;8.47;68.35
7768;BME280;3928;42.626;23.382;2023-11-21T00:16:54;93983.56;;;8.58;68.91
7768;BME280;3928;42.626;23.382;2023-11-21T00:19:20;93967.50;;;8.48;69.25
7768;BME280;3928;42.626;23.382;2023-11-21T00:21:47;93992.66;;;8.76;67.80
7768;BME280;3928;42.626;23.382;2023-11-21T00:24:15;93994.41;;;8.74;68.16
7768;BME280;3928;42.626;23.382;2023-11-21T00:26:43;93990.06;;;8.81;68.19
7768;BME280;3928;42.626;23.382;2023-11-21T00:29:09;93990.00;;;8.84;68.38
7768;BME280;3928;42.626;23.382;2023-11-21T00:31:36;93988.25;;;8.87;67.50
7768;BME280;3928;42.626;23.382;2023-11-21T00:34:04;93979.69;;;8.90;67.95
7768;BME280;3928;42.626;23.382;2023-11-21T00:36:31;93977.16;;;8.87;67.37
7768;BME280;3928;42.626;23.382;2023-11-21T00:38:58;93963.50;;;8.88;67.22
7768;BME280;3928;42.626;23.382;2023-11-21T00:41:27;93968.56;;;8.92;67.14
7768;BME280;3928;42.626;23.382;2023-11-21T00:43:54;93976.28;;;8.88;66.84
7768;BME280;3928;42.626;23.382;2023-11-21T00:46:21;93977.94;;;8.92;67.63
7768;BME280;3928;42.626;23.382;2023-11-21T00:48:49;93981.31;;;8.94;67.05
7768;BME280;3928;42.626;23.382;2023-11-21T00:51:16;93982.19;;;8.93;67.71
7768;BME280;3928;42.626;23.382;2023-11-21T00:53:43;93988.25;;;8.86;67.43
7768;BME280;3928;42.626;23.382;2023-11-21T00:56:10;93977.94;;;8.92;67.32
7768;BME280;3928;42.626;23.382;2023-11-21T00:58:38;93973.59;;;8.97;67.42
7768;BME280;3928;42.626;23.382;2023-11-21T01:01:08;93972.66;;;9.02;66.98
7768;BME280;3928;42.626;23.382;2023-11-21T01:03:34;93967.41;;;9.10;67.41
7768;BME280;3928;42.626;23.382;2023-11-21T01:06:01;93946.19;;;9.03;67.05
7768;BME280;3928;42.626;23.382;2023-11-21T01:08:30;93963.94;;;9.14;67.16
7768;BME280;3928;42.626;23.382;2023-11-21T01:10:56;93970.88;;;9.07;67.77
7768;BME280;3928;42.626;23.382;2023-11-21T01:13:23;93960.72;;;9.03;67.39
7768;BME280;3928;42.626;23.382;2023-11-21T01:15:54;93959.16;;;8.93;67.93
7768;BME280;3928;42.626;23.382;2023-11-21T01:18:21;93967.00;;;8.82;68.81
7768;BME280;3928;42.626;23.382;2023-11-21T01:20:51;93971.47;;;8.69;69.45
7768;BME280;3928;42.626;23.382;2023-11-21T01:23:19;93965.66;;;8.58;69.92
7768;BME280;3928;42.626;23.382;2023-11-21T01:25:45;93967.50;;;8.48;70.24
7768;BME280;3928;42.626;23.382;2023-11-21T01:28:12;93965.19;;;8.29;70.76
7768;BME280;3928;42.626;23.382;2023-11-21T01:30:39;93905.16;;;7.96;72.00
7768;BME280;3928;42.626;23.382;2023-11-21T01:33:09;93967.13;;;8.11;72.84
7768;BME280;3928;42.626;23.382;2023-11-21T01:35:35;93963.22;;;7.83;73.94
7768;BME280;3928;42.626;23.382;2023-11-21T01:38:02;93957.31;;;7.76;74.49
7768;BME280;3928;42.626;23.382;2023-11-21T01:40:30;93950.66;;;7.65;74.76
7768;BME280;3928;42.626;23.382;2023-11-21T01:42:57;93969.53;;;7.51;75.11
7768;BME280;3928;42.626;23.382;2023-11-21T01:45:24;93962.78;;;7.47;75.85
7768;BME280;3928;42.626;23.382;2023-11-21T01:47:51;93962.91;;;7.32;76.77
7768;BME280;3928;42.626;23.382;2023-11-21T01:50:20;93962.78;;;7.43;76.42
7768;BME280;3928;42.626;23.382;2023-11-21T01:52:48;93963.53;;;7.54;76.50
7768;BME280;3928;42.626;23.382;2023-11-21T01:55:16;93946.38;;;7.65;75.93
7768;BME280;3928;42.626;23.382;2023-11-21T01:57:45;93939.50;;;7.72;75.70
7768;BME280;3928;42.626;23.382;2023-11-21T02:00:13;93941.94;;;7.81;74.90
7768;BME280;3928;42.626;23.382;2023-11-21T02:02:45;93949.72;;;7.73;75.00
7768;BME280;3928;42.626;23.382;2023-11-21T02:05:13;93947.31;;;7.59;75.15
7768;BME280;3928;42.626;23.382;2023-11-21T02:07:44;93950.00;;;7.46;75.91
7768;BME280;3928;42.626;23.382;2023-11-21T02:10:14;93760.53;;;6.52;75.65
7768;BME280;3928;42.626;23.382;2023-11-21T02:12:41;93955.75;;;7.65;75.60
7768;BME280;3928;42.626;23.382;2023-11-21T02:15:09;93959.97;;;7.67;75.96
7768;BME280;3928;42.626;23.382;2023-11-21T02:17:40;93959.13;;;7.67;75.33
7768;BME280;3928;42.626;23.382;2023-11-21T02:20:10;93959.94;;;7.72;75.07
7768;BME280;3928;42.626;23.382;2023-11-21T02:22:41;93945.53;;;7.65;75.79
7768;BME280;3928;42.626;23.382;2023-11-21T02:25:10;93951.31;;;7.82;76.10
7768;BME280;3928;42.626;23.382;2023-11-21T02:27:36;93950.53;;;7.75;75.90
7768;BME280;3928;42.626;23.382;2023-11-21T02:30:04;93953.13;;;7.72;75.69
7768;BME280;3928;42.626;23.382;2023-11-21T02:32:33;93954.13;;;7.60;76.43
7768;BME280;3928;42.626;23.382;2023-11-21T02:35:00;93949.13;;;7.48;76.55
7768;BME280;3928;42.626;23.382;2023-11-21T02:37:28;93945.66;;;7.54;76.32
7768;BME280;3928;42.626;23.382;2023-11-21T02:39:54;93950.59;;;7.71;75.71
7768;BME280;3928;42.626;23.382;2023-11-21T02:42:23;93956.56;;;7.68;75.97
7768;BME280;3928;42.626;23.382;2023-11-21T02:44:49;93939.50;;;7.72;75.10
7768;BME280;3928;42.626;23.382;2023-11-21T02:47:16;93954.56;;;7.93;74.51
7768;BME280;3928;42.626;23.382;2023-11-21T02:49:43;93955.41;;;7.95;74.01
7768;BME280;3928;42.626;23.382;2023-11-21T02:52:10;93952.88;;;7.94;73.44
7768;BME280;3928;42.626;23.382;2023-11-21T02:54:37;93952.00;;;7.93;73.92
7768;BME280;3928;42.626;23.382;2023-11-21T02:57:04;93942.63;;;7.95;74.02
7768;BME280;3928;42.626;23.382;2023-11-21T02:59:32;93951.91;;;8.02;73.35
7768;BME280;3928;42.626;23.382;2023-11-21T03:02:00;93956.13;;;8.06;73.39
7768;BME280;3928;42.626;23.382;2023-11-21T03:04:27;93948.41;;;8.09;73.52
7768;BME280;3928;42.626;23.382;2023-11-21T03:06:54;93936.50;;;8.08;73.12
7768;BME280;3928;42.626;23.382;2023-11-21T03:09:21;93944.19;;;8.07;73.04
7768;BME280;3928;42.626;23.382;2023-11-21T03:11:47;93943.31;;;8.09;72.42
7768;BME280;3928;42.626;23.382;2023-11-21T03:14:14;93945.09;;;8.01;72.83
7768;BME280;3928;42.626;23.382;2023-11-21T03:16:43;93934.16;;;7.91;73.51
7768;BME280;3928;42.626;23.382;2023-11-21T03:19:10;93939.38;;;7.82;73.10
7768;BME280;3928;42.626;23.382;2023-11-21T03:21:37;93936.25;;;7.60;74.17
7768;BME280;3928;42.626;23.382;2023-11-21T03:24:05;93906.03;;;7.22;74.76
7768;BME280;3928;42.626;23.382;2023-11-21T03:26:32;93948.28;;;7.48;74.79
7768;BME280;3928;42.626;23.382;2023-11-21T03:28:59;93958.63;;;7.32;75.71
7768;BME280;3928;42.626;23.382;2023-11-21T03:31:26;93959.69;;;7.15;76.59
7768;BME280;3928;42.626;23.382;2023-11-21T03:33:54;93957.16;;;7.13;76.71
7768;BME280;3928;42.626;23.382;2023-11-21T03:36:21;93958.03;;;7.11;76.66
7768;BME280;3928;42.626;23.382;2023-11-21T03:38:50;93968.16;;;7.17;76.76
7768;BME280;3928;42.626;23.382;2023-11-21T03:41:17;93955.34;;;7.24;76.42
7768;BME280;3928;42.626;23.382;2023-11-21T03:43:44;93951.81;;;7.33;75.93
7768;BME280;3928;42.626;23.382;2023-11-21T03:46:11;93964.53;;;7.39;76.02
7768;BME280;3928;42.626;23.382;2023-11-21T03:48:38;93953.41;;;7.45;76.39
7768;BME280;3928;42.626;23.382;2023-11-21T03:51:07;93948.25;;;7.51;75.74
7768;BME280;3928;42.626;23.382;2023-11-21T03:53:33;93932.03;;;7.53;75.48
7768;BME280;3928;42.626;23.382;2023-11-21T03:56:02;93936.16;;;7.65;74.59
7768;BME280;3928;42.626;23.382;2023-11-21T03:58:29;93914.84;;;7.68;74.78
7768;BME280;3928;42.626;23.382;2023-11-21T04:00:56;93931.84;;;7.72;74.69
7768;BME280;3928;42.626;23.382;2023-11-21T04:03:23;93936.13;;;7.68;74.28
7768;BME280;3928;42.626;23.382;2023-11-21T04:05:49;93933.59;;;7.70;74.62
7768;BME280;3928;42.626;23.382;2023-11-21T04:08:18;93926.75;;;7.70;74.23
7768;BME280;3928;42.626;23.382;2023-11-21T04:10:45;93923.22;;;7.79;75.20
7768;BME280;3928;42.626;23.382;2023-11-21T04:13:11;93930.00;;;7.83;74.95
7768;BME280;3928;42.626;23.382;2023-11-21T04:15:39;93920.66;;;7.83;74.51
7768;BME280;3928;42.626;23.382;2023-11-21T04:18:06;93928.19;;;7.91;74.78
7768;BME280;3928;42.626;23.382;2023-11-21T04:20:32;93917.09;;;7.94;74.46
7768;BME280;3928;42.626;23.382;2023-11-21T04:22:59;93931.63;;;7.90;74.39
7768;BME280;3928;42.626;23.382;2023-11-21T04:25:28;93935.28;;;7.71;74.58
7768;BME280;3928;42.626;23.382;2023-11-21T04:27:54;93936.16;;;7.65;74.89
7768;BME280;3928;42.626;23.382;2023-11-21T04:30:21;93926.03;;;7.59;75.58
7768;BME280;3928;42.626;23.382;2023-11-21T04:32:48;93919.19;;;7.62;75.80
7768;BME280;3928;42.626;23.382;2023-11-21T04:35:16;93926.88;;;7.59;75.00
7768;BME280;3928;42.626;23.382;2023-11-21T04:37:43;93932.97;;;7.49;76.32
7768;BME280;3928;42.626;23.382;2023-11-21T04:40:11;93926.44;;;7.24;77.01
7768;BME280;3928;42.626;23.382;2023-11-21T04:42:39;93927.34;;;7.17;78.12
7768;BME280;3928;42.626;23.382;2023-11-21T04:45:06;93920.41;;;7.28;77.20
7768;BME280;3928;42.626;23.382;2023-11-21T04:47:35;93916.00;;;7.42;77.47
7768;BME280;3928;42.626;23.382;2023-11-21T04:50:02;93908.44;;;7.36;77.17
7768;BME280;3928;42.626;23.382;2023-11-21T04:52:29;93922.78;;;7.43;77.67
7768;BME280;3928;42.626;23.382;2023-11-21T04:54:56;93929.53;;;7.50;76.97
7768;BME280;3928;42.626;23.382;2023-11-21T04:57:24;93922.78;;;7.45;76.25
7768;BME280;3928;42.626;23.382;2023-11-21T04:59:52;93930.28;;;7.57;76.60
7768;BME280;3928;42.626;23.382;2023-11-21T05:02:19;93937.88;;;7.65;76.22
7768;BME280;3928;42.626;23.382;2023-11-21T05:04:46;93936.28;;;7.56;76.47
7768;BME280;3928;42.626;23.382;2023-11-21T05:07:13;93938.19;;;7.37;76.94
7768;BME280;3928;42.626;23.382;2023-11-21T05:09:42;93930.50;;;7.39;77.13
7768;BME280;3928;42.626;23.382;2023-11-21T05:12:09;93939.88;;;7.40;76.97
7768;BME280;3928;42.626;23.382;2023-11-21T05:14:37;93927.06;;;7.43;77.38
7768;BME280;3928;42.626;23.382;2023-11-21T05:17:05;93915.97;;;7.44;77.96
7768;BME280;3928;42.626;23.382;2023-11-21T05:19:33;93917.56;;;7.55;77.86
7768;BME280;3928;42.626;23.382;2023-11-21T05:22:01;93916.69;;;7.59;77.60
7768;BME280;3928;42.626;23.382;2023-11-21T05:24:28;93905.59;;;7.60;78.61
7768;BME280;3928;42.626;23.382;2023-11-21T05:26:55;93902.94;;;7.70;77.14
7768;BME280;3928;42.626;23.382;2023-11-21T05:29:23;93918.97;;;7.79;75.90
7768;BME280;3928;42.626;23.382;2023-11-21T05:31:51;93931.09;;;7.63;76.34
7768;BME280;3928;42.626;23.382;2023-11-21T05:34:19;93930.59;;;7.31;77.14
7768;BME280;3928;42.626;23.382;2023-11-21T05:36:49;93934.81;;;7.32;78.23
7768;BME280;3928;42.626;23.382;2023-11-21T05:39:16;93818.97;;;6.68;77.89
7768;BME280;3928;42.626;23.382;2023-11-21T05:41:44;93937.16;;;7.53;77.64
7768;BME280;3928;42.626;23.382;2023-11-21T05:44:11;93938.78;;;7.60;77.43
7768;BME280;3928;42.626;23.382;2023-11-21T05:46:39;93938.66;;;7.71;77.38
7768;BME280;3928;42.626;23.382;2023-11-21T05:49:07;93935.41;;;7.58;77.47
7768;BME280;3928;42.626;23.382;2023-11-21T05:51:36;93940.28;;;7.77;77.38
7768;BME280;3928;42.626;23.382;2023-11-21T05:54:03;93931.66;;;7.87;76.33
7768;BME280;3928;42.626;23.382;2023-11-21T05:56:30;93931.63;;;7.90;76.03
7768;BME280;3928;42.626;23.382;2023-11-21T05:58:58;93924.72;;;7.97;75.86
7768;BME280;3928;42.626;23.382;2023-11-21T06:01:26;93927.38;;;7.89;75.76
7768;BME280;3928;42.626;23.382;2023-11-21T06:03:53;93929.81;;;7.98;75.77
7768;BME280;3928;42.626;23.382;2023-11-21T06:06:21;93938.34;;;7.97;76.09
7768;BME280;3928;42.626;23.382;2023-11-21T06:08:51;93938.31;;;8.00;75.53
7768;BME280;3928;42.626;23.382;2023-11-21T06:11:18;93927.38;;;7.89;76.05
7768;BME280;3928;42.626;23.382;2023-11-21T06:13:45;93940.94;;;7.92;76.42
7768;BME280;3928;42.626;23.382;2023-11-21T06:16:13;93943.47;;;7.97;76.18
7768;BME280;3928;42.626;23.382;2023-11-21T06:18:42;93952.06;;;7.90;76.75
7768;BME280;3928;42.626;23.382;2023-11-21T06:21:10;93774.63;;;6.83;75.40
7768;BME280;3928;42.626;23.382;2023-11-21T06:23:37;93949.38;;;7.99;75.80
7768;BME280;3928;42.626;23.382;2023-11-21T06:26:05;93948.47;;;8.03;75.98
7768;BME280;3928;42.626;23.382;2023-11-21T06:28:34;93961.25;;;8.03;75.99
7768;BME280;3928;42.626;23.382;2023-11-21T06:31:01;93957.25;;;7.81;77.14
7768;BME280;3928;42.626;23.382;2023-11-21T06:33:30;93954.56;;;7.93;77.10
7768;BME280;3928;42.626;23.382;2023-11-21T06:35:57;93941.78;;;7.93;76.28
7768;BME280;3928;42.626;23.382;2023-11-21T06:38:24;93961.97;;;8.14;76.31
7768;BME280;3928;42.626;23.382;2023-11-21T06:40:55;93964.34;;;8.28;77.63
7768;BME280;3928;42.626;23.382;2023-11-21T06:43:23;93964.19;;;8.43;76.51
7768;BME280;3928;42.626;23.382;2023-11-21T06:45:50;93961.41;;;8.57;76.00
7768;BME280;3928;42.626;23.382;2023-11-21T06:48:17;93975.03;;;8.59;76.28
7768;BME280;3928;42.626;23.382;2023-11-21T06:50:44;93974.00;;;8.71;76.24
7768;BME280;3928;42.626;23.382;2023-11-21T06:53:12;93969.66;;;8.77;76.41
7768;BME280;3928;42.626;23.382;2023-11-21T06:55:38;93974.75;;;8.77;76.27
7768;BME280;3928;42.626;23.382;2023-11-21T06:58:05;93964.41;;;8.84;75.47
7768;BME280;3928;42.626;23.382;2023-11-21T07:00:34;93974.47;;;8.96;76.42
7768;BME280;3928;42.626;23.382;2023-11-21T07:03:00;93930.78;;;8.54;75.82
7768;BME280;3928;42.626;23.382;2023-11-21T07:05:27;93973.41;;;9.07;80.53
7768;BME280;3928;42.626;23.382;2023-11-21T07:07:54;93963.59;;;9.35;79.83
7768;BME280;3928;42.626;23.382;2023-11-21T07:10:23;93976.53;;;9.74;77.33
7768;BME280;3928;42.626;23.382;2023-11-21T07:12:49;93969.88;;;10.09;78.64
7768;BME280;3928;42.626;23.382;2023-11-21T07:15:16;93963.72;;;10.16;72.87
7768;BME280;3928;42.626;23.382;2023-11-21T07:17:46;93955.78;;;10.30;71.89
7768;BME280;3928;42.626;23.382;2023-11-21T07:20:14;93954.63;;;10.44;71.17
7768;BME280;3928;42.626;23.382;2023-11-21T07:22:42;93958.84;;;10.47;69.09
7768;BME280;3928;42.626;23.382;2023-11-21T07:25:09;93950.34;;;10.45;69.59
7768;BME280;3928;42.626;23.382;2023-11-21T07:27:36;93968.06;;;10.56;70.30
7768;BME280;3928;42.626;23.382;2023-11-21T07:30:03;93955.53;;;10.42;66.71
7768;BME280;3928;42.626;23.382;2023-11-21T07:32:31;93935.72;;;10.48;70.19
7768;BME280;3928;42.626;23.382;2023-11-21T07:34:59;93965.16;;;10.71;67.63
7768;BME280;3928;42.626;23.382;2023-11-21T07:37:26;93960.31;;;10.94;68.80
7768;BME280;3928;42.626;23.382;2023-11-21T07:39:54;93962.47;;;11.11;68.65
7768;BME280;3928;42.626;23.382;2023-11-21T07:42:22;93961.41;;;11.20;66.04
7768;BME280;3928;42.626;23.382;2023-11-21T07:44:49;93949.34;;;11.23;69.26
7768;BME280;3928;42.626;23.382;2023-11-21T07:47:17;93951.16;;;11.20;65.45
7768;BME280;3928;42.626;23.382;2023-11-21T07:49:44;93956.50;;;11.10;67.59
7768;BME280;3928;42.626;23.382;2023-11-21T07:52:13;93956.19;;;11.23;66.57
7768;BME280;3928;42.626;23.382;2023-11-21T07:54:41;93963.69;;;11.32;63.64
7768;BME280;3928;42.626;23.382;2023-11-21T07:57:08;93947.16;;;11.08;63.82
7768;BME280;3928;42.626;23.382;2023-11-21T07:59:38;93936.97;;;11.05;65.43
7768;BME280;3928;42.626;23.382;2023-11-21T08:02:06;93947.44;;;10.96;64.34
7768;BME280;3928;42.626;23.382;2023-11-21T08:04:34;93929.34;;;11.02;65.71
7768;BME280;3928;42.626;23.382;2023-11-21T08:07:01;93938.03;;;10.96;65.42
7768;BME280;3928;42.626;23.382;2023-11-21T08:09:30;93902.28;;;10.87;66.44
7768;BME280;3928;42.626;23.382;2023-11-21T08:11:59;93922.97;;;11.17;66.42
7768;BME280;3928;42.626;23.382;2023-11-21T08:14:27;93929.06;;;11.12;66.32
7768;BME280;3928;42.626;23.382;2023-11-21T08:16:54;93926.88;;;10.97;65.71
7768;BME280;3928;42.626;23.382;2023-11-21T08:19:23;93918.09;;;11.06;66.43
7768;BME280;3928;42.626;23.382;2023-11-21T08:21:50;93941.91;;;11.12;65.31
7768;BME280;3928;42.626;23.382;2023-11-21T08:24:20;93942.06;;;11.06;65.09
7768;BME280;3928;42.626;23.382;2023-11-21T08:26:48;93937.41;;;11.21;66.52
7768;BME280;3928;42.626;23.382;2023-11-21T08:29:15;93933.00;;;11.27;67.08
7768;BME280;3928;42.626;23.382;2023-11-21T08:31:42;93937.03;;;11.36;65.42
7768;BME280;3928;42.626;23.382;2023-11-21T08:34:10;93930.63;;;11.52;65.84
7768;BME280;3928;42.626;23.382;2023-11-21T08:36:41;93931.28;;;11.60;65.27
7768;BME280;3928;42.626;23.382;2023-11-21T08:39:08;93933.56;;;11.69;65.70
7768;BME280;3928;42.626;23.382;2023-11-21T08:41:36;93930.72;;;11.82;65.90
7768;BME280;3928;42.626;23.382;2023-11-21T08:44:05;93927.94;;;11.89;65.07
7768;BME280;3928;42.626;23.382;2023-11-21T08:46:33;93916.63;;;11.95;65.10
7768;BME280;3928;42.626;23.382;2023-11-21T08:49:03;93919.03;;;12.01;64.63
7768;BME280;3928;42.626;23.382;2023-11-21T08:51:31;93925.59;;;12.11;63.38
7768;BME280;3928;42.626;23.382;2023-11-21T08:53:58;93903.50;;;12.04;63.26
7768;BME280;3928;42.626;23.382;2023-11-21T08:56:29;93925.38;;;12.19;63.21
7768;BME280;3928;42.626;23.382;2023-11-21T08:58:57;93929.41;;;12.27;63.32
7768;BME280;3928;42.626;23.382;2023-11-21T09:01:27;93917.34;;;12.29;63.02
7768;BME280;3928;42.626;23.382;2023-11-21T09:03:54;93918.66;;;12.43;63.45
7768;BME280;3928;42.626;23.382;2023-11-21T09:06:21;93915.75;;;12.53;62.37
7768;BME280;3928;42.626;23.382;2023-11-21T09:08:48;93899.41;;;12.56;62.77
7768;BME280;3928;42.626;23.382;2023-11-21T09:11:14;93899.31;;;12.59;62.02
7768;BME280;3928;42.626;23.382;2023-11-21T09:13:41;93889.84;;;12.59;61.90
7768;BME280;3928;42.626;23.382;2023-11-21T09:16:08;93875.88;;;12.67;62.12
7768;BME280;3928;42.626;23.382;2023-11-21T09:18:37;93873.22;;;12.70;61.65
7768;BME280;3928;42.626;23.382;2023-11-21T09:21:05;93864.50;;;12.47;62.66
7768;BME280;3928;42.626;23.382;2023-11-21T09:23:32;93863.66;;;12.47;63.49
7768;BME280;3928;42.626;23.382;2023-11-21T09:25:59;93853.16;;;12.53;63.97
7768;BME280;3928;42.626;23.382;2023-11-21T09:28:26;93843.91;;;12.47;63.44
7768;BME280;3928;42.626;23.382;2023-11-21T09:30:53;93846.59;;;12.43;63.48
7768;BME280;3928;42.626;23.382;2023-11-21T09:33:20;93841.00;;;12.30;63.44
7768;BME280;3928;42.626;23.382;2023-11-21T09:35:49;93827.91;;;12.38;64.28
7768;BME280;3928;42.626;23.382;2023-11-21T09:38:16;93817.50;;;12.41;64.86
7768;BME280;3928;42.626;23.382;2023-11-21T09:40:43;93813.06;;;12.46;65.45
7768;BME280;3928;42.626;23.382;2023-11-21T09:43:16;93811.91;;;12.56;64.81
7768;BME280;3928;42.626;23.382;2023-11-21T09:45:45;93817.56;;;12.66;62.91
7768;BME280;3928;42.626;23.382;2023-11-21T09:48:13;93816.59;;;12.70;64.02
7768;BME280;3928;42.626;23.382;2023-11-21T09:50:42;93806.78;;;12.81;63.10
7768;BME280;3928;42.626;23.382;2023-11-21T09:53:13;93791.75;;;12.94;62.72
7768;BME280;3928;42.626;23.382;2023-11-21T09:55:45;93790.78;;;12.71;61.24
7768;BME280;3928;42.626;23.382;2023-11-21T09:58:12;93775.84;;;12.56;61.92
7768;BME280;3928;42.626;23.382;2023-11-21T10:00:43;93775.13;;;12.77;62.59
7768;BME280;3928;42.626;23.382;2023-11-21T10:03:11;93777.16;;;12.94;61.32
7768;BME280;3928;42.626;23.382;2023-11-21T10:05:39;93756.63;;;13.16;60.56
7768;BME280;3928;42.626;23.382;2023-11-21T10:08:08;93763.78;;;13.33;59.49
7768;BME280;3928;42.626;23.382;2023-11-21T10:10:38;93760.81;;;13.43;59.49
7768;BME280;3928;42.626;23.382;2023-11-21T10:13:07;93758.00;;;13.50;58.00
7768;BME280;3928;42.626;23.382;2023-11-21T10:15:36;93758.91;;;13.49;57.18
7768;BME280;3928;42.626;23.382;2023-11-21T10:18:04;93734.66;;;13.54;56.88
7768;BME280;3928;42.626;23.382;2023-11-21T10:20:32;93736.59;;;13.71;56.35
7768;BME280;3928;42.626;23.382;2023-11-21T10:23:00;93739.81;;;13.99;56.95
7768;BME280;3928;42.626;23.382;2023-11-21T10:25:29;93740.53;;;14.25;55.68
7768;BME280;3928;42.626;23.382;2023-11-21T10:27:59;93733.00;;;14.41;54.85
7768;BME280;3928;42.626;23.382;2023-11-21T10:30:32;93734.22;;;14.54;54.38
7768;BME280;3928;42.626;23.382;2023-11-21T10:33:03;93732.22;;;14.60;53.80
7768;BME280;3928;42.626;23.382;2023-11-21T10:35:42;93734.22;;;14.74;53.68
7768;BME280;3928;42.626;23.382;2023-11-21T10:38:12;93738.19;;;14.83;52.32
7768;BME280;3928;42.626;23.382;2023-11-21T10:40:40;93728.38;;;14.71;51.31
7768;BME280;3928;42.626;23.382;2023-11-21T10:43:09;93729.91;;;14.75;51.64
7768;BME280;3928;42.626;23.382;2023-11-21T10:45:37;93624.34;;;14.26;52.57
7768;BME280;3928;42.626;23.382;2023-11-21T10:48:05;93704.97;;;14.74;51.68
7768;BME280;3928;42.626;23.382;2023-11-21T10:50:33;93720.22;;;14.80;53.10
7768;BME280;3928;42.626;23.382;2023-11-21T10:53:02;93715.03;;;14.80;52.36
7768;BME280;3928;42.626;23.382;2023-11-21T10:55:30;93710.59;;;14.83;53.40
7768;BME280;3928;42.626;23.382;2023-11-21T10:58:01;93713.19;;;14.83;53.47
7768;BME280;3928;42.626;23.382;2023-11-21T11:00:31;93715.38;;;14.93;52.43
7768;BME280;3928;42.626;23.382;2023-11-21T11:02:59;93704.16;;;14.94;52.06
7768;BME280;3928;42.626;23.382;2023-11-21T11:05:27;93703.31;;;14.93;52.59
7768;BME280;3928;42.626;23.382;2023-11-21T11:07:58;93701.56;;;14.94;53.44
7768;BME280;3928;42.626;23.382;2023-11-21T11:10:27;93708.47;;;14.93;53.38
7768;BME280;3928;42.626;23.382;2023-11-21T11:12:56;93710.16;;;14.94;53.18
7768;BME280;3928;42.626;23.382;2023-11-21T11:15:24;93700.75;;;14.91;53.24
7768;BME280;3928;42.626;23.382;2023-11-21T11:17:53;93703.16;;;14.96;53.69
7768;BME280;3928;42.626;23.382;2023-11-21T11:20:24;93691.41;;;14.89;52.40
7768;BME280;3928;42.626;23.382;2023-11-21T11:25:51;93668.16;;;14.89;52.98
7768;BME280;3928;42.626;23.382;2023-11-21T11:28:31;93659.38;;;14.93;52.80
7768;BME280;3928;42.626;23.382;2023-11-21T11:31:12;93647.38;;;14.92;52.86
7768;BME280;3928;42.626;23.382;2023-11-21T11:33:48;93655.63;;;15.00;52.09
7768;BME280;3928;42.626;23.382;2023-11-21T11:36:24;93650.50;;;14.99;53.42
7768;BME280;3928;42.626;23.382;2023-11-21T11:38:52;93647.16;;;14.97;52.94
7768;BME280;3928;42.626;23.382;2023-11-21T11:41:25;93650.50;;;14.99;53.29
7768;BME280;3928;42.626;23.382;2023-11-21T11:43:53;93630.47;;;14.85;52.48
7768;BME280;3928;42.626;23.382;2023-11-21T11:46:20;93631.91;;;14.90;52.52
7768;BME280;3928;42.626;23.382;2023-11-21T11:49:02;93643.63;;;14.79;52.59
7768;BME280;3928;42.626;23.382;2023-11-21T11:51:29;93657.19;;;14.84;53.45
7768;BME280;3928;42.626;23.382;2023-11-21T11:53:56;93658.09;;;14.83;53.55
7768;BME280;3928;42.626;23.382;2023-11-21T11:56:26;93658.72;;;14.88;52.85
7768;BME280;3928;42.626;23.382;2023-11-21T11:58:54;93658.72;;;14.88;53.16
7768;BME280;3928;42.626;23.382;2023-11-21T12:01:23;93651.88;;;14.87;53.88
7768;BME280;3928;42.626;23.382;2023-11-21T12:04:24;93644.00;;;14.90;53.96
7768;BME280;3928;42.626;23.382;2023-11-21T12:06:59;93641.94;;;14.78;53.16
7768;BME280;3928;42.626;23.382;2023-11-21T12:09:28;93652.56;;;14.72;53.72
7768;BME280;3928;42.626;23.382;2023-11-21T12:11:57;93655.28;;;14.48;52.35
7768;BME280;3928;42.626;23.382;2023-11-21T12:14:23;93660.44;;;14.48;53.28
7768;BME280;3928;42.626;23.382;2023-11-21T12:16:51;93659.75;;;14.45;53.96
7768;BME280;3928;42.626;23.382;2023-11-21T12:19:18;93630.19;;;14.30;54.49
7768;BME280;3928;42.626;23.382;2023-11-21T12:21:49;93671.63;;;14.27;55.30
7768;BME280;3928;42.626;23.382;2023-11-21T12:24:17;93670.66;;;14.29;54.80
7768;BME280;3928;42.626;23.382;2023-11-21T12:26:44;93657.94;;;14.25;54.91
7768;BME280;3928;42.626;23.382;2023-11-21T12:29:11;93638.28;;;14.22;56.50
7768;BME280;3928;42.626;23.382;2023-11-21T12:31:38;93596.38;;;13.95;56.40
7768;BME280;3928;42.626;23.382;2023-11-21T12:34:06;93645.69;;;14.30;56.76
7768;BME280;3928;42.626;23.382;2023-11-21T12:36:37;93647.13;;;14.37;56.63
7768;BME280;3928;42.626;23.382;2023-11-21T12:39:05;93652.41;;;14.34;55.78
7768;BME280;3928;42.626;23.382;2023-11-21T12:41:34;93659.34;;;14.32;56.45
7768;BME280;3928;42.626;23.382;2023-11-21T12:44:01;93663.66;;;14.33;56.78
7768;BME280;3928;42.626;23.382;2023-11-21T12:46:28;93656.84;;;14.30;56.76
7768;BME280;3928;42.626;23.382;2023-11-21T12:48:57;93649.94;;;14.31;56.71
7768;BME280;3928;42.626;23.382;2023-11-21T12:51:24;93654.47;;;14.26;57.42
7768;BME280;3928;42.626;23.382;2023-11-21T12:53:51;93629.09;;;14.15;57.37
7768;BME280;3928;42.626;23.382;2023-11-21T12:56:21;93630.19;;;14.30;56.53
7768;BME280;3928;42.626;23.382;2023-11-21T12:58:49;93618.06;;;14.12;57.47
7768;BME280;3928;42.626;23.382;2023-11-21T13:01:17;93616.00;;;13.99;57.79
7768;BME280;3928;42.626;23.382;2023-11-21T13:03:47;93641.50;;;14.27;57.59
7768;BME280;3928;42.626;23.382;2023-11-21T13:06:17;93622.28;;;14.34;57.34
7768;BME280;3928;42.626;23.382;2023-11-21T13:08:44;93615.31;;;14.37;57.36
7768;BME280;3928;42.626;23.382;2023-11-21T13:11:11;93623.59;;;14.43;58.03
7768;BME280;3928;42.626;23.382;2023-11-21T13:13:42;93624.31;;;14.48;58.45
7768;BME280;3928;42.626;23.382;2023-11-21T13:16:10;93625.00;;;14.52;58.60
7768;BME280;3928;42.626;23.382;2023-11-21T13:18:37;93623.19;;;14.54;58.28
7768;BME280;3928;42.626;23.382;2023-11-21T13:21:06;93617.13;;;14.55;57.99
7768;BME280;3928;42.626;23.382;2023-11-21T13:23:38;93617.72;;;14.61;58.19
7768;BME280;3928;42.626;23.382;2023-11-21T13:26:07;93611.59;;;14.42;57.85